SWR47M EDDN-LOWW
Flight info
| Callsign | SWR47M |
|---|---|
| Flight time | 0h 57m |
| Altitude | 29000 |
| Route | RODIS1G RODIS L604 LAMSI DCT VENEN VENEN3W |
| Aircraft | A21N/M-SDE3FGHIRWY/LB1 |
Departure
| Time | 2026-04-22 18:40 |
|---|---|
| Airport | Nuremberg Airport (EDDN) |
Arrival
| Time | 2026-04-22 19:37 |
|---|---|
| Airport | Vienna International Airport (LOWW) |
| Time | Latitude | Longitude | Altitude | Speed | Heading |
|---|---|---|---|---|---|
| 2026-04-22 18:15 | 49.49560 | 11.07395 | 1025 ft | 0 kts | 188° |
| 2026-04-22 18:29 | 49.49561 | 11.07395 | 1025 ft | 1 kts | 188° |
| 2026-04-22 18:29 | 49.49574 | 11.07398 | 1025 ft | 0 kts | 188° |
| 2026-04-22 18:29 | 49.49585 | 11.07400 | 1025 ft | 2 kts | 176° |
| 2026-04-22 18:30 | 49.49600 | 11.07395 | 1025 ft | 2 kts | 157° |
| 2026-04-22 18:30 | 49.49623 | 11.07366 | 1025 ft | 2 kts | 120° |
| 2026-04-22 18:30 | 49.49628 | 11.07345 | 1025 ft | 1 kts | 102° |
| 2026-04-22 18:31 | 49.49629 | 11.07336 | 1024 ft | 1 kts | 96° |
| 2026-04-22 18:31 | 49.49630 | 11.07332 | 1024 ft | 0 kts | 98° |
| 2026-04-22 18:34 | 49.49626 | 11.07370 | 1025 ft | 9 kts | 98° |
| 2026-04-22 18:34 | 49.49606 | 11.07531 | 1026 ft | 20 kts | 95° |
| 2026-04-22 18:34 | 49.49583 | 11.07811 | 1027 ft | 31 kts | 98° |
| 2026-04-22 18:35 | 49.49545 | 11.08187 | 1031 ft | 34 kts | 98° |
| 2026-04-22 18:35 | 49.49560 | 11.08346 | 1032 ft | 12 kts | 25° |
| 2026-04-22 18:35 | 49.49606 | 11.08446 | 1033 ft | 11 kts | 78° |
| 2026-04-22 18:35 | 49.49602 | 11.08565 | 1035 ft | 10 kts | 96° |
| 2026-04-22 18:36 | 49.49592 | 11.08674 | 1036 ft | 10 kts | 98° |
| 2026-04-22 18:36 | 49.49577 | 11.08833 | 1038 ft | 23 kts | 98° |
| 2026-04-22 18:36 | 49.49545 | 11.09148 | 1043 ft | 29 kts | 100° |
| 2026-04-22 18:36 | 49.49533 | 11.09267 | 1045 ft | 0 kts | 97° |
| 2026-04-22 18:38 | 49.49532 | 11.09277 | 1046 ft | 6 kts | 95° |
| 2026-04-22 18:38 | 49.49571 | 11.09445 | 1048 ft | 27 kts | 53° |
| 2026-04-22 18:38 | 49.49694 | 11.09530 | 1050 ft | 11 kts | 299° |
| 2026-04-22 18:39 | 49.49701 | 11.09499 | 1049 ft | 0 kts | 279° |
| 2026-04-22 18:39 | 49.49709 | 11.09413 | 1048 ft | 39 kts | 278° |
| 2026-04-22 18:40 | 49.49803 | 11.08477 | 1035 ft | 134 kts | 278° |
| 2026-04-22 18:40 | 49.49961 | 11.06720 | 1259 ft | 187 kts | 280° |
| 2026-04-22 18:40 | 49.50141 | 11.04785 | 2368 ft | 184 kts | 281° |
| 2026-04-22 18:40 | 49.50314 | 11.02920 | 3419 ft | 179 kts | 282° |
| 2026-04-22 18:41 | 49.50505 | 11.00987 | 3958 ft | 193 kts | 282° |
| 2026-04-22 18:41 | 49.50715 | 10.98875 | 4476 ft | 209 kts | 282° |
| 2026-04-22 18:41 | 49.50941 | 10.96587 | 5000 ft | 226 kts | 283° |
| 2026-04-22 18:41 | 49.51526 | 10.94289 | 5389 ft | 244 kts | 313° |
| 2026-04-22 18:42 | 49.52902 | 10.92731 | 5953 ft | 254 kts | 343° |
| 2026-04-22 18:42 | 49.54655 | 10.92410 | 6639 ft | 261 kts | 5° |
| 2026-04-22 18:42 | 49.56482 | 10.92540 | 7567 ft | 265 kts | 4° |
| 2026-04-22 18:42 | 49.58295 | 10.92727 | 8492 ft | 266 kts | 14° |
| 2026-04-22 18:43 | 49.59889 | 10.94064 | 9348 ft | 266 kts | 47° |
| 2026-04-22 18:43 | 49.60788 | 10.96495 | 10226 ft | 270 kts | 71° |
| 2026-04-22 18:43 | 49.60961 | 10.99422 | 10842 ft | 286 kts | 94° |
| 2026-04-22 18:43 | 49.60524 | 11.02485 | 11271 ft | 305 kts | 100° |
| 2026-04-22 18:44 | 49.60036 | 11.05764 | 11660 ft | 322 kts | 99° |
| 2026-04-22 18:44 | 49.59539 | 11.09240 | 12013 ft | 340 kts | 99° |
| 2026-04-22 18:44 | 49.59035 | 11.12818 | 12570 ft | 350 kts | 99° |
| 2026-04-22 18:44 | 49.58523 | 11.16482 | 13334 ft | 353 kts | 99° |
| 2026-04-22 18:45 | 49.58008 | 11.20180 | 14076 ft | 355 kts | 98° |
| 2026-04-22 18:45 | 49.57495 | 11.23872 | 14775 ft | 359 kts | 98° |
| 2026-04-22 18:45 | 49.56974 | 11.27629 | 15465 ft | 362 kts | 98° |
| 2026-04-22 18:45 | 49.56443 | 11.31450 | 16036 ft | 365 kts | 98° |
| 2026-04-22 18:46 | 49.55913 | 11.35257 | 16283 ft | 366 kts | 98° |
| 2026-04-22 18:46 | 49.55385 | 11.39045 | 16302 ft | 365 kts | 98° |
| 2026-04-22 18:46 | 49.54854 | 11.42843 | 16294 ft | 365 kts | 98° |
| 2026-04-22 18:46 | 49.54313 | 11.46704 | 16299 ft | 365 kts | 98° |
| 2026-04-22 18:47 | 49.53784 | 11.50465 | 16297 ft | 365 kts | 98° |
| 2026-04-22 18:47 | 49.53247 | 11.54285 | 16293 ft | 365 kts | 98° |
| 2026-04-22 18:47 | 49.52708 | 11.58102 | 16290 ft | 366 kts | 98° |
| 2026-04-22 18:47 | 49.52163 | 11.61968 | 16606 ft | 373 kts | 98° |
| 2026-04-22 18:48 | 49.51619 | 11.65807 | 17338 ft | 372 kts | 99° |
| 2026-04-22 18:48 | 49.51065 | 11.69697 | 18008 ft | 374 kts | 99° |
| 2026-04-22 18:48 | 49.50505 | 11.73634 | 18597 ft | 377 kts | 99° |
| 2026-04-22 18:48 | 49.49945 | 11.77541 | 19176 ft | 380 kts | 99° |
| 2026-04-22 18:49 | 49.49377 | 11.81504 | 19757 ft | 382 kts | 99° |
| 2026-04-22 18:49 | 49.48805 | 11.85478 | 20323 ft | 385 kts | 99° |
| 2026-04-22 18:49 | 49.48224 | 11.89509 | 20869 ft | 387 kts | 99° |
| 2026-04-22 18:49 | 49.47597 | 11.93553 | 21396 ft | 391 kts | 101° |
| 2026-04-22 18:50 | 49.46829 | 11.97520 | 21915 ft | 394 kts | 104° |
| 2026-04-22 18:50 | 49.45929 | 12.01491 | 22427 ft | 397 kts | 106° |
| 2026-04-22 18:50 | 49.45003 | 12.05490 | 22925 ft | 399 kts | 106° |
| 2026-04-22 18:50 | 49.44076 | 12.09475 | 23396 ft | 401 kts | 106° |
| 2026-04-22 18:51 | 49.43135 | 12.13516 | 23847 ft | 403 kts | 106° |
| 2026-04-22 18:51 | 49.42195 | 12.17544 | 24292 ft | 405 kts | 106° |
| 2026-04-22 18:51 | 49.41244 | 12.21616 | 24717 ft | 407 kts | 106° |
| 2026-04-22 18:51 | 49.40286 | 12.25713 | 25128 ft | 409 kts | 106° |
| 2026-04-22 18:52 | 49.39320 | 12.29833 | 25528 ft | 411 kts | 106° |
| 2026-04-22 18:52 | 49.38353 | 12.33950 | 25929 ft | 412 kts | 106° |
| 2026-04-22 18:52 | 49.37385 | 12.38057 | 26310 ft | 414 kts | 106° |
| 2026-04-22 18:52 | 49.36404 | 12.42218 | 26684 ft | 415 kts | 106° |
| 2026-04-22 18:53 | 49.35427 | 12.46353 | 27051 ft | 416 kts | 106° |
| 2026-04-22 18:53 | 49.34318 | 12.50488 | 27413 ft | 420 kts | 111° |
| 2026-04-22 18:53 | 49.32865 | 12.54357 | 27799 ft | 425 kts | 118° |
| 2026-04-22 18:53 | 49.31073 | 12.57939 | 28144 ft | 430 kts | 126° |
| 2026-04-22 18:54 | 49.28998 | 12.61299 | 28466 ft | 433 kts | 129° |
| 2026-04-22 18:54 | 49.26900 | 12.64563 | 28783 ft | 435 kts | 129° |
| 2026-04-22 18:54 | 49.24765 | 12.67854 | 29090 ft | 437 kts | 130° |
| 2026-04-22 18:54 | 49.22613 | 12.71175 | 29289 ft | 437 kts | 130° |
| 2026-04-22 18:55 | 49.18341 | 12.77772 | 29294 ft | 437 kts | 129° |
| 2026-04-22 18:55 | 49.14076 | 12.84350 | 29291 ft | 436 kts | 129° |
| 2026-04-22 18:56 | 49.09803 | 12.90925 | 29290 ft | 437 kts | 129° |
| 2026-04-22 18:56 | 49.05540 | 12.97467 | 29290 ft | 438 kts | 129° |
| 2026-04-22 18:57 | 49.01262 | 13.04015 | 29286 ft | 437 kts | 129° |
| 2026-04-22 18:57 | 48.96987 | 13.10542 | 29284 ft | 436 kts | 129° |
| 2026-04-22 18:58 | 48.92701 | 13.17072 | 29284 ft | 437 kts | 129° |
| 2026-04-22 18:58 | 48.88403 | 13.23599 | 29283 ft | 438 kts | 129° |
| 2026-04-22 18:59 | 48.84124 | 13.30079 | 29286 ft | 439 kts | 129° |
| 2026-04-22 18:59 | 48.79830 | 13.36559 | 29289 ft | 439 kts | 129° |
| 2026-04-22 19:00 | 48.75489 | 13.43094 | 29286 ft | 439 kts | 129° |
| 2026-04-22 19:00 | 48.71183 | 13.49562 | 29285 ft | 440 kts | 129° |
| 2026-04-22 19:01 | 48.67118 | 13.56393 | 29283 ft | 432 kts | 118° |
| 2026-04-22 19:01 | 48.64852 | 13.64543 | 29280 ft | 418 kts | 98° |
| 2026-04-22 19:02 | 48.64010 | 13.73170 | 29274 ft | 416 kts | 94° |
| 2026-04-22 19:02 | 48.63266 | 13.81776 | 29013 ft | 409 kts | 94° |
| 2026-04-22 19:03 | 48.62896 | 13.86009 | 28279 ft | 408 kts | 94° |
| 2026-04-22 19:03 | 48.62524 | 13.90225 | 27611 ft | 406 kts | 94° |
| 2026-04-22 19:03 | 48.62150 | 13.94457 | 27291 ft | 406 kts | 94° |
| 2026-04-22 19:03 | 48.61775 | 13.98657 | 27255 ft | 408 kts | 94° |
| 2026-04-22 19:04 | 48.61393 | 14.02917 | 27256 ft | 408 kts | 94° |
| 2026-04-22 19:04 | 48.61013 | 14.07136 | 27253 ft | 408 kts | 94° |
| 2026-04-22 19:04 | 48.60628 | 14.11367 | 27254 ft | 408 kts | 94° |
| 2026-04-22 19:04 | 48.60243 | 14.15601 | 27253 ft | 408 kts | 94° |
| 2026-04-22 19:05 | 48.59855 | 14.19822 | 27252 ft | 408 kts | 94° |
| 2026-04-22 19:05 | 48.59469 | 14.24034 | 27249 ft | 407 kts | 94° |
| 2026-04-22 19:05 | 48.59076 | 14.28287 | 27255 ft | 408 kts | 94° |
| 2026-04-22 19:05 | 48.58689 | 14.32475 | 27253 ft | 408 kts | 94° |
| 2026-04-22 19:06 | 48.58290 | 14.36751 | 27250 ft | 407 kts | 94° |
| 2026-04-22 19:06 | 48.57901 | 14.40923 | 27254 ft | 406 kts | 94° |
| 2026-04-22 19:06 | 48.57506 | 14.45114 | 26999 ft | 396 kts | 94° |
| 2026-04-22 19:07 | 48.56747 | 14.53261 | 24876 ft | 396 kts | 92° |
| 2026-04-22 19:07 | 48.56506 | 14.57328 | 24066 ft | 393 kts | 90° |
| 2026-04-22 19:07 | 48.56302 | 14.61424 | 23361 ft | 390 kts | 90° |
| 2026-04-22 19:07 | 48.56107 | 14.65429 | 22684 ft | 386 kts | 91° |
| 2026-04-22 19:08 | 48.55909 | 14.69462 | 22008 ft | 383 kts | 90° |
| 2026-04-22 19:08 | 48.55720 | 14.73278 | 21368 ft | 380 kts | 90° |
| 2026-04-22 19:08 | 48.55528 | 14.77153 | 20726 ft | 376 kts | 90° |
| 2026-04-22 19:08 | 48.55335 | 14.81054 | 20057 ft | 374 kts | 90° |
| 2026-04-22 19:09 | 48.55138 | 14.84980 | 19385 ft | 372 kts | 90° |
| 2026-04-22 19:09 | 48.54944 | 14.88815 | 18731 ft | 369 kts | 90° |
| 2026-04-22 19:09 | 48.54813 | 14.91371 | 18301 ft | 368 kts | 90° |
| 2026-04-22 19:09 | 48.54552 | 14.96438 | 17565 ft | 362 kts | 90° |
| 2026-04-22 19:10 | 48.54357 | 15.00154 | 17335 ft | 349 kts | 90° |
| 2026-04-22 19:10 | 48.54168 | 15.03749 | 17238 ft | 332 kts | 90° |
| 2026-04-22 19:10 | 48.53990 | 15.07113 | 17232 ft | 315 kts | 89° |
| 2026-04-22 19:10 | 48.53822 | 15.10298 | 17228 ft | 300 kts | 89° |
| 2026-04-22 19:11 | 48.53663 | 15.13404 | 17234 ft | 299 kts | 89° |
| 2026-04-22 19:11 | 48.53505 | 15.16562 | 17236 ft | 299 kts | 89° |
| 2026-04-22 19:11 | 48.53346 | 15.19675 | 17233 ft | 298 kts | 89° |
| 2026-04-22 19:11 | 48.53176 | 15.22733 | 17049 ft | 293 kts | 89° |
| 2026-04-22 19:12 | 48.53006 | 15.25801 | 16542 ft | 295 kts | 89° |
| 2026-04-22 19:12 | 48.52840 | 15.28868 | 16056 ft | 295 kts | 89° |
| 2026-04-22 19:12 | 48.52671 | 15.31961 | 15614 ft | 293 kts | 89° |
| 2026-04-22 19:12 | 48.52506 | 15.34972 | 15183 ft | 292 kts | 89° |
| 2026-04-22 19:13 | 48.52336 | 15.38053 | 14735 ft | 291 kts | 89° |
| 2026-04-22 19:13 | 48.52171 | 15.41043 | 14300 ft | 290 kts | 89° |
| 2026-04-22 19:13 | 48.52003 | 15.44060 | 13869 ft | 289 kts | 89° |
| 2026-04-22 19:13 | 48.51836 | 15.47086 | 13428 ft | 288 kts | 89° |
| 2026-04-22 19:14 | 48.51671 | 15.50069 | 13007 ft | 287 kts | 89° |
| 2026-04-22 19:14 | 48.51505 | 15.53046 | 12583 ft | 286 kts | 89° |
| 2026-04-22 19:14 | 48.51336 | 15.56046 | 12156 ft | 285 kts | 89° |
| 2026-04-22 19:14 | 48.51169 | 15.59003 | 11731 ft | 284 kts | 89° |
| 2026-04-22 19:15 | 48.51057 | 15.60972 | 11453 ft | 283 kts | 89° |
| 2026-04-22 19:15 | 48.50837 | 15.64850 | 10905 ft | 281 kts | 89° |
| 2026-04-22 19:15 | 48.50674 | 15.67728 | 10491 ft | 280 kts | 90° |
| 2026-04-22 19:15 | 48.50505 | 15.70637 | 10079 ft | 279 kts | 90° |
| 2026-04-22 19:16 | 48.50336 | 15.73532 | 9670 ft | 278 kts | 90° |
| 2026-04-22 19:16 | 48.50166 | 15.76430 | 9264 ft | 277 kts | 90° |
| 2026-04-22 19:16 | 48.49924 | 15.79268 | 8837 ft | 280 kts | 99° |
| 2026-04-22 19:16 | 48.49235 | 15.82042 | 8429 ft | 283 kts | 109° |
| 2026-04-22 19:17 | 48.48417 | 15.84712 | 8032 ft | 282 kts | 110° |
| 2026-04-22 19:17 | 48.47588 | 15.87398 | 7617 ft | 281 kts | 110° |
| 2026-04-22 19:17 | 48.46795 | 15.90048 | 7222 ft | 279 kts | 109° |
| 2026-04-22 19:17 | 48.46009 | 15.92739 | 6818 ft | 278 kts | 109° |
| 2026-04-22 19:18 | 48.45253 | 15.95370 | 6415 ft | 277 kts | 108° |
| 2026-04-22 19:18 | 48.44487 | 15.98067 | 6080 ft | 278 kts | 108° |
| 2026-04-22 19:18 | 48.43731 | 16.00748 | 6051 ft | 280 kts | 108° |
| 2026-04-22 19:18 | 48.42966 | 16.03467 | 6050 ft | 284 kts | 108° |
| 2026-04-22 19:19 | 48.42198 | 16.06195 | 6046 ft | 285 kts | 108° |
| 2026-04-22 19:19 | 48.41433 | 16.08908 | 6045 ft | 285 kts | 108° |
| 2026-04-22 19:19 | 48.40653 | 16.11668 | 6042 ft | 285 kts | 108° |
| 2026-04-22 19:19 | 48.39877 | 16.14415 | 6042 ft | 285 kts | 108° |
| 2026-04-22 19:20 | 48.39101 | 16.17162 | 6043 ft | 284 kts | 108° |
| 2026-04-22 19:20 | 48.38334 | 16.19875 | 6039 ft | 284 kts | 108° |
| 2026-04-22 19:20 | 48.37557 | 16.22620 | 6033 ft | 284 kts | 108° |
| 2026-04-22 19:20 | 48.36777 | 16.25367 | 6029 ft | 285 kts | 108° |
| 2026-04-22 19:21 | 48.36004 | 16.28087 | 6025 ft | 285 kts | 108° |
| 2026-04-22 19:21 | 48.35232 | 16.30801 | 6034 ft | 285 kts | 108° |
| 2026-04-22 19:21 | 48.34452 | 16.33543 | 6027 ft | 284 kts | 108° |
| 2026-04-22 19:21 | 48.33678 | 16.36262 | 6026 ft | 284 kts | 108° |
| 2026-04-22 19:22 | 48.32901 | 16.38988 | 6027 ft | 284 kts | 108° |
| 2026-04-22 19:22 | 48.32113 | 16.41748 | 6029 ft | 284 kts | 108° |
| 2026-04-22 19:22 | 48.31338 | 16.44457 | 6026 ft | 284 kts | 108° |
| 2026-04-22 19:22 | 48.30518 | 16.47150 | 6022 ft | 286 kts | 113° |
| 2026-04-22 19:23 | 48.29440 | 16.49691 | 6027 ft | 290 kts | 123° |
| 2026-04-22 19:23 | 48.28091 | 16.51984 | 6027 ft | 293 kts | 132° |
| 2026-04-22 19:23 | 48.26538 | 16.53952 | 6018 ft | 295 kts | 139° |
| 2026-04-22 19:23 | 48.24889 | 16.55800 | 6023 ft | 295 kts | 140° |
| 2026-04-22 19:24 | 48.23264 | 16.57586 | 5992 ft | 280 kts | 140° |
| 2026-04-22 19:24 | 48.21762 | 16.59242 | 5991 ft | 260 kts | 139° |
| 2026-04-22 19:24 | 48.20338 | 16.60868 | 6004 ft | 258 kts | 135° |
| 2026-04-22 19:24 | 48.19030 | 16.62718 | 6013 ft | 255 kts | 127° |
| 2026-04-22 19:25 | 48.17932 | 16.64753 | 6011 ft | 252 kts | 119° |
| 2026-04-22 19:25 | 48.17025 | 16.66998 | 6014 ft | 249 kts | 112° |
| 2026-04-22 19:25 | 48.16282 | 16.69231 | 5896 ft | 244 kts | 110° |
| 2026-04-22 19:25 | 48.15548 | 16.71516 | 5543 ft | 245 kts | 110° |
| 2026-04-22 19:26 | 48.14811 | 16.73805 | 5211 ft | 245 kts | 111° |
| 2026-04-22 19:26 | 48.14070 | 16.76076 | 4896 ft | 244 kts | 111° |
| 2026-04-22 19:26 | 48.13317 | 16.78359 | 4598 ft | 243 kts | 111° |
| 2026-04-22 19:26 | 48.12568 | 16.80624 | 4290 ft | 242 kts | 111° |
| 2026-04-22 19:27 | 48.11827 | 16.82853 | 4083 ft | 235 kts | 111° |
| 2026-04-22 19:27 | 48.11119 | 16.84976 | 4001 ft | 223 kts | 111° |
| 2026-04-22 19:27 | 48.10434 | 16.87034 | 3999 ft | 222 kts | 110° |
| 2026-04-22 19:27 | 48.09750 | 16.89101 | 3999 ft | 221 kts | 110° |
| 2026-04-22 19:28 | 48.09062 | 16.91172 | 3999 ft | 221 kts | 111° |
| 2026-04-22 19:28 | 48.08383 | 16.93213 | 3997 ft | 221 kts | 111° |
| 2026-04-22 19:28 | 48.07697 | 16.95275 | 3997 ft | 221 kts | 111° |
| 2026-04-22 19:28 | 48.07012 | 16.97329 | 4012 ft | 221 kts | 111° |
| 2026-04-22 19:29 | 48.06324 | 16.99386 | 3985 ft | 220 kts | 111° |
| 2026-04-22 19:29 | 48.05638 | 17.01437 | 3991 ft | 220 kts | 111° |
| 2026-04-22 19:29 | 48.04812 | 17.03379 | 3979 ft | 227 kts | 133° |
| 2026-04-22 19:29 | 48.03418 | 17.04506 | 3988 ft | 234 kts | 168° |
| 2026-04-22 19:30 | 48.02339 | 17.04558 | 3990 ft | 233 kts | 191° |
| 2026-04-22 19:30 | 48.00297 | 17.03573 | 4003 ft | 231 kts | 210° |
| 2026-04-22 19:30 | 47.99131 | 17.02063 | 3990 ft | 221 kts | 245° |
| 2026-04-22 19:30 | 47.98692 | 16.99947 | 4013 ft | 211 kts | 270° |
| 2026-04-22 19:31 | 47.98681 | 16.97794 | 3996 ft | 207 kts | 280° |
| 2026-04-22 19:31 | 47.98823 | 16.95664 | 3986 ft | 204 kts | 285° |
| 2026-04-22 19:31 | 47.99164 | 16.93629 | 3990 ft | 200 kts | 295° |
| 2026-04-22 19:31 | 47.99703 | 16.91722 | 3985 ft | 198 kts | 302° |
| 2026-04-22 19:32 | 48.00335 | 16.89933 | 3983 ft | 196 kts | 303° |
| 2026-04-22 19:32 | 48.00980 | 16.88114 | 3984 ft | 196 kts | 303° |
| 2026-04-22 19:32 | 48.01604 | 16.86296 | 3991 ft | 197 kts | 303° |
| 2026-04-22 19:32 | 48.02208 | 16.84486 | 3997 ft | 197 kts | 302° |
| 2026-04-22 19:33 | 48.02813 | 16.82624 | 4009 ft | 197 kts | 301° |
| 2026-04-22 19:33 | 48.03395 | 16.80797 | 4058 ft | 198 kts | 301° |
| 2026-04-22 19:33 | 48.03989 | 16.78925 | 3784 ft | 197 kts | 301° |
| 2026-04-22 19:33 | 48.04576 | 16.77080 | 3485 ft | 194 kts | 301° |
| 2026-04-22 19:34 | 48.05135 | 16.75331 | 3198 ft | 181 kts | 301° |
| 2026-04-22 19:34 | 48.05666 | 16.73681 | 2979 ft | 175 kts | 302° |
| 2026-04-22 19:34 | 48.06193 | 16.72066 | 2734 ft | 173 kts | 301° |
| 2026-04-22 19:34 | 48.06701 | 16.70498 | 2484 ft | 159 kts | 301° |
| 2026-04-22 19:35 | 48.07162 | 16.69068 | 2271 ft | 153 kts | 301° |
| 2026-04-22 19:35 | 48.07632 | 16.67626 | 2084 ft | 153 kts | 301° |
| 2026-04-22 19:35 | 48.07940 | 16.66677 | 1960 ft | 153 kts | 301° |
| 2026-04-22 19:35 | 48.08557 | 16.64774 | 1713 ft | 152 kts | 301° |
| 2026-04-22 19:36 | 48.09017 | 16.63358 | 1505 ft | 152 kts | 300° |
| 2026-04-22 19:36 | 48.09483 | 16.61925 | 1293 ft | 153 kts | 299° |
| 2026-04-22 19:36 | 48.09943 | 16.60489 | 1080 ft | 154 kts | 298° |
| 2026-04-22 19:36 | 48.10400 | 16.59051 | 883 ft | 153 kts | 299° |
| 2026-04-22 19:37 | 48.10873 | 16.57644 | 686 ft | 148 kts | 299° |
| 2026-04-22 19:37 | 48.11295 | 16.56371 | 601 ft | 115 kts | 297° |
| 2026-04-22 19:37 | 48.11565 | 16.55536 | 592 ft | 64 kts | 296° |
| 2026-04-22 19:37 | 48.11721 | 16.55255 | 591 ft | 6 kts | 314° |
| 2026-04-22 19:38 | 48.11777 | 16.55176 | 590 ft | 15 kts | 326° |
| 2026-04-22 19:38 | 48.11795 | 16.55161 | 590 ft | 0 kts | 334° |
| 2026-04-22 19:38 | 48.11799 | 16.55158 | 590 ft | 4 kts | 335° |
| 2026-04-22 19:39 | 48.11865 | 16.55156 | 590 ft | 9 kts | 41° |
| 2026-04-22 19:39 | 48.11847 | 16.55305 | 590 ft | 22 kts | 117° |
| 2026-04-22 19:39 | 48.11761 | 16.55577 | 591 ft | 35 kts | 115° |
| 2026-04-22 19:39 | 48.11636 | 16.55969 | 594 ft | 46 kts | 117° |
| 2026-04-22 19:40 | 48.11531 | 16.56282 | 597 ft | 29 kts | 119° |
| 2026-04-22 19:40 | 48.11483 | 16.56439 | 599 ft | 18 kts | 116° |
| 2026-04-22 19:40 | 48.11395 | 16.56706 | 603 ft | 38 kts | 116° |
| 2026-04-22 19:40 | 48.11305 | 16.56982 | 605 ft | 26 kts | 116° |
| 2026-04-22 19:41 | 48.11254 | 16.57135 | 607 ft | 5 kts | 116° |
| 2026-04-22 19:41 | 48.11264 | 16.57292 | 607 ft | 21 kts | 32° |
| 2026-04-22 19:41 | 48.11405 | 16.57396 | 605 ft | 3 kts | 25° |
| 2026-04-22 19:41 | 48.11464 | 16.57437 | 605 ft | 0 kts | 25° |
| 2026-04-22 19:42 | 48.11537 | 16.57456 | 604 ft | 27 kts | 353° |
| 2026-04-22 19:42 | 48.11754 | 16.57361 | 601 ft | 23 kts | 344° |
| 2026-04-22 19:42 | 48.11853 | 16.57151 | 600 ft | 27 kts | 286° |
| 2026-04-22 19:42 | 48.11929 | 16.56908 | 598 ft | 7 kts | 294° |
| 2026-04-22 19:43 | 48.11928 | 16.56729 | 597 ft | 8 kts | 206° |
| 2026-04-22 19:43 | 48.11919 | 16.56723 | 598 ft | 0 kts | 207° |